Terminal Aerodrome Forecast
Issued by NWS

Home | Current Version | Previous Version | Text Only | Print | Product List | Glossary On
Versions: 1 2 3 4 5 6 7 8 9 10 11 12 13 14 15 16 17 18 19 20 21 22 23 24 25 26 27 28
895
FTUS46 KEKA 230535
TAFCEC
TAF
KCEC 230535Z 2306/2406 16010KT P6SM OVC050
     FM231200 17010KT 5SM -RA BR SCT005 OVC015
     FM231800 17012G17KT 3SM -RA BR BKN007 OVC010
     FM240200 20004KT 3SM BR VCSH BKN005=

USA.gov is the U.S. government's official web portal to all federal, state and local government web resources and services.